• Join FlightAware (Why Join?)
  • Login
  • US Flag 
10:22AM EDT


 

Airport Tracker/Info


-or-


 

Live Flight TrackerFlight Track Log ✈ UAE787 ✈ 07-May-2013 ✈ OMDB / DXB - DGAA / ACC

Flight Track Log - Related Links

Times and Time Zones

All times are in EDT time to prevent confusion due to time zone crossing. See the UAE787 flight status page for this flight to view local times or setup timezone preferences in your user account.

Time Position Orientation Groundspeed Altitude Reporting Facility
EDT Latitude Longitude Course Direction KTS MPH feet Rate Location/Type
11:48PM 25.2720 55.3360 299° West 204 235 900  Level FlightAware
11:48PM 25.2820 55.3180 302° West 196 226 2,100 2,460 Climbing FlightAware
11:49PM 25.2980 55.2880 301° West 214 246 3,200 1,920 Climbing FlightAware
11:49PM 25.2940 55.2370 265° West 253 291 4,500 2,400 Climbing FlightAware
11:50PM 25.2860 55.1950 258° West 260 299 6,000 2,400 Climbing FlightAware
11:50PM 25.2830 55.1760 260° West 278 320 6,300 1,200 Climbing FlightAware
11:51PM 25.2770 55.1380 260° West 310 357 6,800 1,200 Climbing FlightAware
11:51PM 25.2730 55.1130 260° West 326 375 7,100 1,980 Climbing FlightAware
11:51PM 25.2650 55.0600 261° West 344 396 8,300 2,820 Climbing FlightAware
11:52PM 25.2570 55.0100 260° West 351 404 9,700 2,880 Climbing FlightAware
11:52PM 25.2470 54.9480 260° West 358 412 11,200 2,400 Climbing FlightAware
11:53PM 25.2540 54.8820 277° West 364 419 12,700 2,280 Climbing FlightAware
11:54PM 25.2780 54.7880 286° West 379 436 14,700 2,220 Climbing FlightAware
11:55PM 25.3000 54.7040 286° West 390 449 16,300 2,220 Climbing FlightAware
11:55PM 25.3180 54.6260 284° West 399 459 17,900 2,280 Climbing FlightAware
11:56PM 25.3410 54.5340 285° West 405 466 19,600 2,100 Climbing FlightAware
11:57PM 25.3600 54.4540 285° West 413 475 20,900 1,920 Climbing FlightAware
11:57PM 25.3820 54.3650 285° West 420 483 22,400 1,860 Climbing FlightAware
11:58PM 25.4030 54.2790 285° West 433 498 23,600 1,800 Climbing FlightAware
11:59PM 25.4230 54.1960 285° West 440 506 24,800 1,800 Climbing FlightAware
12:00AM 25.4470 54.0980 285° West 443 510 26,200 1,920 Climbing FlightAware
12:00AM 25.4700 54.0040 285° West 444 511 27,600 1,680 Climbing FlightAware
12:01AM 25.4940 53.9040 285° West 453 521 28,600 1,620 Climbing FlightAware
12:02AM 25.5150 53.8140 285° West 452 520 29,900 2,220 Climbing FlightAware
12:02AM 25.5360 53.7290 285° West 433 498 31,600 1,440 Climbing FlightAware
12:03AM 25.5620 53.6310 286° West 443 510 32,000 300 Climbing FlightAware
12:04AM 25.5900 53.5610 294° West 443 510 32,000  Level FlightAware
12:04AM 25.6220 53.4760 293° West 443 510 32,000  Level FlightAware
12:05AM 25.6660 53.3530 292° West 439 505 32,000  Level FlightAware
12:07AM 25.7230 53.1910 291° West 443 510 32,000  Level FlightAware
12:07AM 25.7520 53.1100 292° West 444 511 32,000  Level FlightAware
12:08AM 25.7730 53.0210 285° West 438 504 32,000  Level FlightAware
12:09AM 25.7880 52.9190 279° West 439 505 32,000  Level FlightAware
12:09AM 25.8000 52.8300 279° West 441 507 32,000  Level FlightAware
12:10AM 25.8150 52.7280 279° West 442 509 32,000  Level FlightAware
12:11AM 25.8260 52.6540 279° West 443 510 32,000  Level FlightAware
12:11AM 25.8420 52.5390 279° West 443 510 32,000  Level FlightAware
12:12AM 25.8610 52.4490 283° West 455 524 32,000  Level FlightAware
12:13AM 25.9000 52.3630 297° West 459 528 32,000  Level FlightAware
12:14AM 25.9460 52.2700 299° West 460 529 32,000  Level FlightAware
12:14AM 25.9850 52.1900 298° West 458 527 32,000  Level FlightAware
12:15AM 26.0320 52.0930 298° West 455 524 32,000  Level FlightAware
12:16AM 26.0670 52.0200 298° West 454 522 32,000  Level FlightAware
12:16AM 26.1110 51.9270 298° West 452 520 32,000  Level FlightAware
12:17AM 26.1540 51.8380 298° West 455 524 32,000  Level FlightAware
12:18AM 26.1930 51.7530 297° West 451 519 32,000  Level FlightAware
12:18AM 26.2300 51.6710 297° West 451 519 32,000  Level FlightAware
12:19AM 26.2730 51.5750 297° West 450 518 32,000  Level FlightAware
12:20AM 26.3120 51.4880 297° West 449 517 32,000  Level FlightAware
12:21AM 26.3540 51.3960 297° West 446 513 32,000  Level FlightAware
12:21AM 26.3890 51.3110 295° West 445 512 32,000  Level FlightAware
12:22AM 26.4260 51.2200 294° West 444 511 32,000  Level FlightAware
12:23AM 26.4600 51.1340 294° West 444 511 32,000  Level FlightAware
12:23AM 26.4940 51.0500 294° West 444 511 32,000  Level FlightAware
12:24AM 26.5300 50.9600 294° West 443 510 32,000  Level FlightAware
12:25AM 26.5630 50.8710 293° West 437 503 32,000  Level FlightAware
12:25AM 26.5910 50.7890 291° West 436 502 32,000  Level FlightAware
12:26AM 26.6230 50.6940 291° West 436 502 32,000  Level FlightAware
12:27AM 26.6510 50.6110 291° West 437 503 32,000  Level FlightAware
12:28AM 26.6780 50.5260 290° West 437 503 32,000  Level FlightAware
12:28AM 26.7000 50.4530 289° West 437 503 32,000  Level FlightAware
12:29AM 26.7520 50.3100 292° West 438 504 32,000  Level FlightAware
12:30AM 26.7730 50.2290 286° West 438 504 32,000  Level FlightAware
12:31AM 26.7530 50.0660 262° West 424 488 32,000  Level FlightAware
12:32AM 26.7520 50.0100 269° West 424 488 32,000  Level FlightAware
12:32AM 26.7460 49.8980 267° West 424 488 32,000  Level FlightAware
12:33AM 26.7430 49.7930 268° West 424 488 32,000  Level FlightAware
12:34AM 26.7400 49.6980 268° West 425 489 32,000  Level FlightAware
12:34AM 26.7370 49.6100 268° West 424 488 32,000  Level FlightAware
12:35AM 26.7330 49.5220 267° West 424 488 32,000  Level FlightAware
12:36AM 26.7300 49.4250 268° West 425 489 32,000  Level FlightAware
12:37AM 26.7280 49.3290 269° West 32,000  Level FlightAware
12:37AM 26.7250 49.2440 268° West 427 491 32,000  Level FlightAware
12:38AM 26.7210 49.1360 268° West 428 493 32,000  Level FlightAware
12:39AM 26.7180 49.0550 268° West 431 496 32,000  Level FlightAware
12:39AM 26.7140 48.9480 268° West 429 494 32,000  Level FlightAware
12:40AM 26.7110 48.8620 268° West 428 493 32,000  Level FlightAware
12:41AM 26.7070 48.7720 267° West 429 494 32,000  Level FlightAware
12:42AM 26.7040 48.6720 268° West 430 495 32,000  Level FlightAware
12:42AM 26.7000 48.5830 267° West 431 496 32,000  Level FlightAware
12:43AM 26.6960 48.4830 267° West 430 495 32,000  Level FlightAware
12:44AM 26.6930 48.3990 268° West 431 496 32,000  Level FlightAware
12:44AM 26.6890 48.3050 267° West 431 496 32,000  Level FlightAware
12:45AM 26.6840 48.2040 267° West 433 498 32,000  Level FlightAware
12:46AM 26.6800 48.1040 267° West 432 497 32,000  Level FlightAware
12:46AM 26.6770 48.0270 268° West 431 496 32,000  Level FlightAware
12:47AM 26.6670 47.9840 255° West 425 489 32,000  Level FlightAware
12:47AM 26.6370 47.9390 233° Southwest 427 491 32,000  Level FlightAware
12:48AM 26.5710 47.8910 213° Southwest 434 499 32,000  Level FlightAware
12:49AM 26.4930 47.8380 211° Southwest 436 502 32,000  Level FlightAware
12:49AM 26.4230 47.7920 210° Southwest 435 501 32,000  Level FlightAware
12:50AM 26.3460 47.7390 212° Southwest 435 501 32,000  Level FlightAware
12:51AM 26.2780 47.6920 212° Southwest 434 499 32,000  Level FlightAware
12:51AM 26.2090 47.6450 211° Southwest 434 499 32,000  Level FlightAware
12:52AM 26.1320 47.5930 211° Southwest 434 499 32,000  Level FlightAware
12:53AM 26.0650 47.5480 211° Southwest 434 499 32,000  Level FlightAware
12:53AM 25.9850 47.4940 211° Southwest 436 502 32,000  Level FlightAware
12:54AM 25.9280 47.4340 223° Southwest 431 496 32,000  Level FlightAware
12:55AM 25.8730 47.3540 233° Southwest 434 499 32,000  Level FlightAware
12:56AM 25.8240 47.2810 233° Southwest 433 498 32,000  Level FlightAware
12:56AM 25.7770 47.2120 233° Southwest 434 499 32,000  Level FlightAware
12:57AM 25.7210 47.1310 233° Southwest 433 498 32,000  Level FlightAware
12:58AM 25.6710 47.0590 232° Southwest 435 501 32,000  Level FlightAware
12:58AM 25.6150 46.9780 233° Southwest 437 503 32,000  Level FlightAware
12:59AM 25.5660 46.9060 233° Southwest 438 504 32,000  Level FlightAware
01:00AM 25.5150 46.8340 232° Southwest 438 504 32,000  Level FlightAware
01:00AM 25.4600 46.7530 233° Southwest 436 502 32,000  Level FlightAware
01:01AM 25.4090 46.6810 232° Southwest 438 504 32,000  Level FlightAware
01:02AM 25.3590 46.6100 232° Southwest 438 504 32,000  Level FlightAware
01:03AM 25.3030 46.5290 233° Southwest 439 505 32,000  Level FlightAware
01:03AM 25.2530 46.4570 232° Southwest 438 504 32,000  Level FlightAware
01:04AM 25.1970 46.3770 232° Southwest 444 511 32,000  Level FlightAware
01:05AM 25.1460 46.3040 232° Southwest 445 512 32,000  Level FlightAware
01:05AM 25.0950 46.2320 232° Southwest 447 514 32,000  Level FlightAware
01:06AM 25.0390 46.1520 232° Southwest 447 514 32,000  Level FlightAware
01:07AM 24.9880 46.0800 232° Southwest 446 513 32,000  Level FlightAware
01:07AM 24.9310 45.9990 232° Southwest 445 512 32,000  Level FlightAware
01:08AM 24.8810 45.9270 233° Southwest 446 513 32,000  Level FlightAware
01:09AM 24.8310 45.8580 231° Southwest 447 514 32,000  Level FlightAware
01:10AM 24.7720 45.7740 232° Southwest 449 517 32,000  Level FlightAware
01:10AM 24.7210 45.7020 232° Southwest 449 517 32,000  Level FlightAware
01:11AM 24.6700 45.6310 232° Southwest 449 517 32,000  Level FlightAware
01:12AM 24.6120 45.5490 232° Southwest 448 516 32,000  Level FlightAware
01:12AM 24.5610 45.4780 232° Southwest 448 516 32,000  Level FlightAware
01:13AM 24.5040 45.3970 232° Southwest 448 516 32,000  Level FlightAware
01:14AM 24.4520 45.3250 232° Southwest 448 516 32,000  Level FlightAware
01:14AM 24.3960 45.2460 232° Southwest 450 518 32,000  Level FlightAware
01:15AM 24.3430 45.1730 231° Southwest 447 514 32,000  Level FlightAware
01:16AM 24.2920 45.1010 232° Southwest 450 518 32,000  Level FlightAware
01:17AM 24.2340 45.0210 232° Southwest 447 514 32,000  Level FlightAware
01:17AM 24.1820 44.9480 232° Southwest 448 516 32,000  Level FlightAware
01:18AM 24.1230 44.8670 231° Southwest 448 516 32,000  Level FlightAware
01:19AM 24.0720 44.7960 232° Southwest 450 518 32,000  Level FlightAware
01:19AM 24.0190 44.7240 231° Southwest 445 512 32,000  Level FlightAware
01:20AM 23.9620 44.6450 232° Southwest 445 512 32,000  Level FlightAware
01:21AM 23.9290 44.5870 238° Southwest 438 504 32,000  Level FlightAware
01:21AM 23.9080 44.5080 254° West 437 503 32,000  Level FlightAware
01:22AM 23.8890 44.4190 257° West 439 505 32,000  Level FlightAware
01:23AM 23.8710 44.3370 257° West 439 505 32,000  Level FlightAware
01:23AM 23.8550 44.2630 257° West 440 506 32,000  Level FlightAware
01:24AM 23.8310 44.1540 256° West 440 506 32,000  Level FlightAware
01:25AM 23.8090 44.0540 256° West 440 506 32,000  Level FlightAware
01:25AM 23.7930 43.9810 257° West 440 506 32,000  Level FlightAware
01:26AM 23.7700 43.8720 257° West 32,000  Level FlightAware
01:27AM 23.7500 43.7780 257° West 32,000  Level FlightAware
01:28AM 23.7240 43.6620 256° West 438 504 32,000  Level FlightAware
01:28AM 23.7070 43.5890 256° West 438 504 32,000  Level FlightAware
01:29AM 23.6900 43.5160 256° West 438 504 32,000  Level FlightAware
01:30AM 23.6740 43.4430 257° West 438 504 32,000  Level FlightAware
01:30AM 23.6570 43.3700 256° West 438 504 32,000  Level FlightAware
01:31AM 23.6360 43.2790 256° West 438 504 32,000  Level FlightAware
01:32AM 23.6190 43.2060 256° West 438 504 32,000  Level FlightAware
01:33AM 23.6030 43.1330 257° West 438 504 32,000  Level FlightAware
01:33AM 23.5860 43.0600 256° West 438 504 32,000  Level FlightAware
01:34AM 23.5690 42.9870 256° West 438 504 32,000  Level FlightAware
01:35AM 23.5490 42.8960 257° West 438 504 32,000  Level FlightAware
01:35AM 23.5320 42.8230 256° West 438 504 32,000  Level FlightAware
01:36AM 23.5150 42.7500 256° West 438 504 32,000  Level FlightAware
01:37AM 23.4990 42.6770 257° West 438 504 32,000  Level FlightAware
01:39AM 23.4781 42.5834 256° West  Level FlightAware Approximate
01:40AM 23.4660 42.5289 256° West  Level FlightAware Approximate
01:41AM 23.4538 42.4745 256° West  Level FlightAware Approximate
01:42AM 23.4416 42.4200 256° West  Level FlightAware Approximate
01:43AM 23.4293 42.3655 256° West  Level FlightAware Approximate
01:44AM 23.4171 42.3111 256° West  Level FlightAware Approximate
01:45AM 23.4048 42.2566 256° West  Level FlightAware Approximate
01:46AM 23.3926 42.2022 256° West  Level FlightAware Approximate
01:47AM 23.3803 42.1478 256° West  Level FlightAware Approximate
01:48AM 23.3679 42.0934 256° West  Level FlightAware Approximate
01:49AM 23.3556 42.0390 256° West  Level FlightAware Approximate
01:50AM 23.3432 41.9846 256° West  Level FlightAware Approximate
01:51AM 23.3309 41.9302 256° West  Level FlightAware Approximate
01:52AM 23.3185 41.8758 256° West  Level FlightAware Approximate
01:53AM 23.3060 41.8215 256° West  Level FlightAware Approximate
01:54AM 23.2936 41.7671 256° West  Level FlightAware Approximate
01:55AM 23.2769 41.7100 236° Southwest  Level FlightAware Approximate
01:56AM 23.2483 41.6634 236° Southwest  Level FlightAware Approximate
01:57AM 23.2197 41.6169 236° Southwest  Level FlightAware Approximate
01:58AM 23.1912 41.5704 236° Southwest  Level FlightAware Approximate
01:59AM 23.1625 41.5238 236° Southwest  Level FlightAware Approximate
02:00AM 23.1339 41.4774 236° Southwest  Level FlightAware Approximate
02:01AM 23.1053 41.4309 236° Southwest  Level FlightAware Approximate
02:02AM 23.0767 41.3844 236° Southwest  Level FlightAware Approximate
02:03AM 23.0480 41.3380 236° Southwest  Level FlightAware Approximate
02:04AM 23.0193 41.2916 236° Southwest  Level FlightAware Approximate
02:05AM 22.9907 41.2452 236° Southwest  Level FlightAware Approximate
02:06AM 22.9620 41.1988 236° Southwest  Level FlightAware Approximate
02:07AM 22.9332 41.1525 236° Southwest  Level FlightAware Approximate
02:08AM 22.9045 41.1061 236° Southwest  Level FlightAware Approximate
02:09AM 22.8758 41.0598 236° Southwest  Level FlightAware Approximate
02:10AM 22.8470 41.0135 236° Southwest  Level FlightAware Approximate
02:11AM 22.8183 40.9672 236° Southwest  Level FlightAware Approximate
02:12AM 22.7895 40.9210 236° Southwest  Level FlightAware Approximate
02:13AM 22.7607 40.8747 236° Southwest  Level FlightAware Approximate
02:14AM 22.7319 40.8285 236° Southwest  Level FlightAware Approximate
02:15AM 22.7031 40.7823 236° Southwest  Level FlightAware Approximate
02:16AM 22.6742 40.7361 236° Southwest  Level FlightAware Approximate
02:17AM 22.6454 40.6900 236° Southwest  Level FlightAware Approximate
02:18AM 22.6166 40.6438 236° Southwest  Level FlightAware Approximate
02:19AM 22.5877 40.5977 236° Southwest  Level FlightAware Approximate
02:20AM 22.5588 40.5516 236° Southwest  Level FlightAware Approximate
02:21AM 22.5299 40.5055 236° Southwest  Level FlightAware Approximate
02:22AM 22.5010 40.4595 236° Southwest  Level FlightAware Approximate
02:23AM 22.4721 40.4134 236° Southwest  Level FlightAware Approximate
02:24AM 22.4431 40.3674 236° Southwest  Level FlightAware Approximate
02:25AM 22.4142 40.3214 236° Southwest  Level FlightAware Approximate
02:26AM 22.3852 40.2754 236° Southwest  Level FlightAware Approximate
02:27AM 22.3562 40.2295 236° Southwest  Level FlightAware Approximate
02:28AM 22.3272 40.1835 236° Southwest  Level FlightAware Approximate
02:29AM 22.2983 40.1376 236° Southwest  Level FlightAware Approximate
02:30AM 22.2692 40.0917 236° Southwest  Level FlightAware Approximate
02:31AM 22.2402 40.0458 236° Southwest  Level FlightAware Approximate
02:32AM 22.2112 39.9999 236° Southwest  Level FlightAware Approximate
02:33AM 22.1821 39.9540 236° Southwest  Level FlightAware Approximate
02:34AM 22.1530 39.9082 236° Southwest  Level FlightAware Approximate
02:35AM 22.1240 39.8624 236° Southwest  Level FlightAware Approximate
02:36AM 22.0949 39.8166 236° Southwest  Level FlightAware Approximate
02:37AM 22.0658 39.7708 236° Southwest  Level FlightAware Approximate
02:38AM 22.0367 39.7251 236° Southwest  Level FlightAware Approximate
02:39AM 22.0075 39.6793 236° Southwest  Level FlightAware Approximate
02:40AM 21.9784 39.6336 236° Southwest  Level FlightAware Approximate
02:41AM 21.9492 39.5879 235° Southwest  Level FlightAware Approximate
02:42AM 21.9201 39.5422 235° Southwest  Level FlightAware Approximate
02:43AM 21.8909 39.4966 235° Southwest  Level FlightAware Approximate
02:44AM 21.8617 39.4509 235° Southwest  Level FlightAware Approximate
02:45AM 21.8325 39.4053 235° Southwest  Level FlightAware Approximate
02:46AM 21.8033 39.3597 235° Southwest  Level FlightAware Approximate
02:47AM 21.7740 39.3141 235° Southwest  Level FlightAware Approximate
02:48AM 21.7448 39.2685 235° Southwest  Level FlightAware Approximate
02:49AM 21.7155 39.2230 235° Southwest  Level FlightAware Approximate
02:50AM 21.6863 39.1774 235° Southwest  Level FlightAware Approximate
02:51AM 21.6488 39.1401 219° Southwest  Level FlightAware Approximate
02:52AM 21.6086 39.1056 219° Southwest  Level FlightAware Approximate
02:53AM 21.5684 39.0710 219° Southwest  Level FlightAware Approximate
02:54AM 21.5283 39.0364 219° Southwest  Level FlightAware Approximate
02:55AM 21.4881 39.0019 219° Southwest  Level FlightAware Approximate
02:56AM 21.4479 38.9674 219° Southwest  Level FlightAware Approximate
02:57AM 21.4077 38.9329 219° Southwest  Level FlightAware Approximate
02:58AM 21.3675 38.8984 219° Southwest  Level FlightAware Approximate
02:59AM 21.3273 38.8640 219° Southwest  Level FlightAware Approximate
03:00AM 21.2871 38.8296 219° Southwest  Level FlightAware Approximate
03:01AM 21.2469 38.7951 219° Southwest  Level FlightAware Approximate
03:02AM 21.2066 38.7607 219° Southwest  Level FlightAware Approximate
03:03AM 21.1664 38.7263 219° Southwest  Level FlightAware Approximate
03:04AM 21.1262 38.6920 219° Southwest  Level FlightAware Approximate
03:05AM 21.0859 38.6576 219° Southwest  Level FlightAware Approximate
03:06AM 21.0456 38.6233 219° Southwest  Level FlightAware Approximate
03:07AM 21.0054 38.5890 219° Southwest  Level FlightAware Approximate
03:08AM 20.9651 38.5547 218° Southwest  Level FlightAware Approximate
03:09AM 20.9248 38.5205 218° Southwest  Level FlightAware Approximate
03:10AM 20.8846 38.4862 218° Southwest  Level FlightAware Approximate
03:11AM 20.8443 38.4520 218° Southwest  Level FlightAware Approximate
03:12AM 20.8040 38.4178 218° Southwest  Level FlightAware Approximate
03:13AM 20.7637 38.3836 218° Southwest  Level FlightAware Approximate
03:14AM 20.7234 38.3494 218° Southwest  Level FlightAware Approximate
03:15AM 20.6830 38.3152 218° Southwest  Level FlightAware Approximate
03:16AM 20.6427 38.2811 218° Southwest  Level FlightAware Approximate
03:17AM 20.6024 38.2470 218° Southwest  Level FlightAware Approximate
03:18AM 20.5620 38.2129 218° Southwest  Level FlightAware Approximate
03:19AM 20.5217 38.1788 218° Southwest  Level FlightAware Approximate
03:20AM 20.4813 38.1447 218° Southwest  Level FlightAware Approximate
03:21AM 20.4410 38.1107 218° Southwest  Level FlightAware Approximate
03:22AM 20.4006 38.0766 218° Southwest  Level FlightAware Approximate
03:23AM 20.3603 38.0426 218° Southwest  Level FlightAware Approximate
03:24AM 20.3199 38.0086 218° Southwest  Level FlightAware Approximate
03:25AM 20.2795 37.9747 218° Southwest  Level FlightAware Approximate
03:26AM 20.2391 37.9407 218° Southwest  Level FlightAware Approximate
03:27AM 20.1987 37.9067 218° Southwest  Level FlightAware Approximate
03:28AM 20.1583 37.8728 218° Southwest  Level FlightAware Approximate
03:29AM 20.1179 37.8389 218° Southwest  Level FlightAware Approximate
03:30AM 20.0775 37.8050 218° Southwest  Level FlightAware Approximate
03:31AM 20.0371 37.7711 218° Southwest  Level FlightAware Approximate
03:32AM 19.9966 37.7373 218° Southwest  Level FlightAware Approximate
03:33AM 19.9562 37.7034 218° Southwest  Level FlightAware Approximate
03:34AM 19.9158 37.6696 218° Southwest  Level FlightAware Approximate
03:35AM 19.8753 37.6358 218° Southwest  Level FlightAware Approximate
03:36AM 19.8348 37.6020 218° Southwest  Level FlightAware Approximate
03:37AM 19.7944 37.5683 218° Southwest  Level FlightAware Approximate
03:38AM 19.7539 37.5345 218° Southwest  Level FlightAware Approximate
03:39AM 19.7134 37.5008 218° Southwest  Level FlightAware Approximate
03:40AM 19.6730 37.4671 218° Southwest  Level FlightAware Approximate
03:41AM 19.6325 37.4334 218° Southwest  Level FlightAware Approximate
03:42AM 19.5920 37.3997 218° Southwest  Level FlightAware Approximate
03:43AM 19.5515 37.3660 218° Southwest  Level FlightAware Approximate
03:44AM 19.5110 37.3324 218° Southwest  Level FlightAware Approximate
03:45AM 19.4705 37.2987 218° Southwest  Level FlightAware Approximate
03:46AM 19.4299 37.2651 218° Southwest  Level FlightAware Approximate
03:47AM 19.3914 37.2294 230° Southwest  Level FlightAware Approximate
03:48AM 19.3584 37.1875 230° Southwest  Level FlightAware Approximate
03:49AM 19.3255 37.1456 230° Southwest  Level FlightAware Approximate
03:50AM 19.2925 37.1038 230° Southwest  Level FlightAware Approximate
03:51AM 19.2595 37.0620 230° Southwest  Level FlightAware Approximate
03:52AM 19.2265 37.0201 230° Southwest  Level FlightAware Approximate
03:53AM 19.1936 36.9784 230° Southwest  Level FlightAware Approximate
03:54AM 19.1605 36.9366 230° Southwest  Level FlightAware Approximate
03:55AM 19.1275 36.8948 230° Southwest  Level FlightAware Approximate
03:56AM 19.0945 36.8531 230° Southwest  Level FlightAware Approximate
03:57AM 19.0614 36.8113 230° Southwest  Level FlightAware Approximate
03:58AM 19.0284 36.7696 230° Southwest  Level FlightAware Approximate
03:59AM 18.9953 36.7279 230° Southwest  Level FlightAware Approximate
04:00AM 18.9623 36.6863 230° Southwest  Level FlightAware Approximate
04:01AM 18.9292 36.6446 230° Southwest  Level FlightAware Approximate
04:02AM 18.8961 36.6030 230° Southwest  Level FlightAware Approximate
04:03AM 18.8630 36.5613 230° Southwest  Level FlightAware Approximate
04:04AM 18.8299 36.5197 230° Southwest  Level FlightAware Approximate
04:05AM 18.7968 36.4781 230° Southwest  Level FlightAware Approximate
04:06AM 18.7637 36.4366 230° Southwest  Level FlightAware Approximate
04:07AM 18.7306 36.3950 230° Southwest  Level FlightAware Approximate
04:08AM 18.6974 36.3535 230° Southwest  Level FlightAware Approximate
04:09AM 18.6643 36.3119 230° Southwest  Level FlightAware Approximate
04:10AM 18.6311 36.2704 230° Southwest  Level FlightAware Approximate
04:11AM 18.5979 36.2289 230° Southwest  Level FlightAware Approximate
04:12AM 18.5648 36.1874 230° Southwest  Level FlightAware Approximate
04:13AM 18.5316 36.1460 230° Southwest  Level FlightAware Approximate
04:14AM 18.4984 36.1045 230° Southwest  Level FlightAware Approximate
04:15AM 18.4652 36.0631 230° Southwest  Level FlightAware Approximate
04:16AM 18.4320 36.0217 230° Southwest  Level FlightAware Approximate
04:17AM 18.3988 35.9803 230° Southwest  Level FlightAware Approximate
04:18AM 18.3655 35.9389 230° Southwest  Level FlightAware Approximate
04:19AM 18.3323 35.8975 230° Southwest  Level FlightAware Approximate
04:20AM 18.2990 35.8562 230° Southwest  Level FlightAware Approximate
04:21AM 18.2658 35.8148 230° Southwest  Level FlightAware Approximate
04:22AM 18.2325 35.7735 230° Southwest  Level FlightAware Approximate
04:23AM 18.1992 35.7322 230° Southwest  Level FlightAware Approximate
04:24AM 18.1660 35.6909 230° Southwest  Level FlightAware Approximate
04:25AM 18.1327 35.6497 230° Southwest  Level FlightAware Approximate
04:26AM 18.0994 35.6084 230° Southwest  Level FlightAware Approximate
04:27AM 18.0661 35.5672 230° Southwest  Level FlightAware Approximate
04:28AM 18.0327 35.5259 230° Southwest  Level FlightAware Approximate
04:29AM 17.9994 35.4847 230° Southwest  Level FlightAware Approximate
04:30AM 17.9661 35.4435 230° Southwest  Level FlightAware Approximate
04:31AM 17.9327 35.4023 230° Southwest  Level FlightAware Approximate
04:32AM 17.8994 35.3612 230° Southwest  Level FlightAware Approximate
04:33AM 17.8660 35.3200 230° Southwest  Level FlightAware Approximate
04:34AM 17.8327 35.2789 230° Southwest  Level FlightAware Approximate
04:35AM 17.7993 35.2378 230° Southwest  Level FlightAware Approximate
04:36AM 17.7659 35.1967 230° Southwest  Level FlightAware Approximate
04:37AM 17.7325 35.1556 230° Southwest  Level FlightAware Approximate
04:38AM 17.6991 35.1145 230° Southwest  Level FlightAware Approximate
04:39AM 17.6657 35.0735 230° Southwest  Level FlightAware Approximate
04:40AM 17.6323 35.0324 229° Southwest  Level FlightAware Approximate
04:41AM 17.5988 34.9914 229° Southwest  Level FlightAware Approximate
04:42AM 17.5654 34.9504 229° Southwest  Level FlightAware Approximate
04:43AM 17.5319 34.9094 229° Southwest  Level FlightAware Approximate
04:44AM 17.4985 34.8684 229° Southwest  Level FlightAware Approximate
04:45AM 17.4650 34.8275 229° Southwest  Level FlightAware Approximate
04:46AM 17.4315 34.7865 229° Southwest  Level FlightAware Approximate
04:47AM 17.3981 34.7456 229° Southwest  Level FlightAware Approximate
04:48AM 17.3646 34.7047 229° Southwest  Level FlightAware Approximate
04:49AM 17.3311 34.6638 229° Southwest  Level FlightAware Approximate
04:50AM 17.2976 34.6229 229° Southwest  Level FlightAware Approximate
04:51AM 17.2641 34.5820 229° Southwest  Level FlightAware Approximate
04:52AM 17.2305 34.5411 229° Southwest  Level FlightAware Approximate
04:53AM 17.1970 34.5003 229° Southwest  Level FlightAware Approximate
04:54AM 17.1635 34.4595 229° Southwest  Level FlightAware Approximate
04:55AM 17.1299 34.4186 229° Southwest  Level FlightAware Approximate
04:56AM 17.0964 34.3778 229° Southwest  Level FlightAware Approximate
04:57AM 17.0628 34.3371 229° Southwest  Level FlightAware Approximate
04:58AM 17.0292 34.2963 229° Southwest  Level FlightAware Approximate
04:59AM 16.9957 34.2555 229° Southwest  Level FlightAware Approximate
05:00AM 16.9621 34.2148 229° Southwest  Level FlightAware Approximate
05:01AM 16.9285 34.1740 229° Southwest  Level FlightAware Approximate
05:02AM 16.8949 34.1333 229° Southwest  Level FlightAware Approximate
05:03AM 16.8613 34.0926 229° Southwest  Level FlightAware Approximate
05:04AM 16.8276 34.0520 229° Southwest  Level FlightAware Approximate
05:05AM 16.7940 34.0113 229° Southwest  Level FlightAware Approximate
05:06AM 16.7604 33.9706 229° Southwest  Level FlightAware Approximate
05:07AM 16.7267 33.9300 229° Southwest  Level FlightAware Approximate
05:08AM 16.6931 33.8894 229° Southwest  Level FlightAware Approximate
05:09AM 16.6594 33.8488 229° Southwest  Level FlightAware Approximate
05:10AM 16.6257 33.8082 229° Southwest  Level FlightAware Approximate
05:11AM 16.5921 33.7676 229° Southwest  Level FlightAware Approximate
05:12AM 16.5584 33.7270 229° Southwest  Level FlightAware Approximate
05:13AM 16.5247 33.6864 229° Southwest  Level FlightAware Approximate
05:14AM 16.4910 33.6459 229° Southwest  Level FlightAware Approximate
05:15AM 16.4573 33.6054 229° Southwest  Level FlightAware Approximate
05:16AM 16.4236 33.5649 229° Southwest  Level FlightAware Approximate
05:17AM 16.3899 33.5244 229° Southwest  Level FlightAware Approximate
05:18AM 16.3561 33.4839 229° Southwest  Level FlightAware Approximate
05:19AM 16.3224 33.4434 229° Southwest  Level FlightAware Approximate
05:20AM 16.2887 33.4030 229° Southwest  Level FlightAware Approximate
05:21AM 16.2549 33.3625 229° Southwest  Level FlightAware Approximate
05:22AM 16.2211 33.3221 229° Southwest  Level FlightAware Approximate
05:23AM 16.1874 33.2817 229° Southwest  Level FlightAware Approximate
05:24AM 16.1536 33.2413 229° Southwest  Level FlightAware Approximate
05:25AM 16.1198 33.2009 229° Southwest  Level FlightAware Approximate
05:26AM 16.0860 33.1605 229° Southwest  Level FlightAware Approximate
05:27AM 16.0522 33.1201 229° Southwest  Level FlightAware Approximate
05:28AM 16.0184 33.0798 229° Southwest  Level FlightAware Approximate
05:29AM 15.9846 33.0395 229° Southwest  Level FlightAware Approximate
05:30AM 15.9508 32.9991 229° Southwest  Level FlightAware Approximate
05:31AM 15.9170 32.9588 229° Southwest  Level FlightAware Approximate
05:32AM 15.8831 32.9185 229° Southwest  Level FlightAware Approximate
05:33AM 15.8493 32.8783 229° Southwest  Level FlightAware Approximate
05:34AM 15.8154 32.8380 229° Southwest  Level FlightAware Approximate
05:35AM 15.7816 32.7977 229° Southwest  Level FlightAware Approximate
05:36AM 15.7477 32.7575 229° Southwest  Level FlightAware Approximate
05:37AM 15.7138 32.7173 229° Southwest  Level FlightAware Approximate
05:38AM 15.6799 32.6771 229° Southwest  Level FlightAware Approximate
05:39AM 15.6461 32.6369 229° Southwest  Level FlightAware Approximate
05:40AM 15.6122 32.5967 229° Southwest  Level FlightAware Approximate
05:41AM 15.5777 32.5571 223° Southwest  Level FlightAware Approximate
05:42AM 15.5399 32.5209 223° Southwest  Level FlightAware Approximate
05:43AM 15.5021 32.4846 223° Southwest  Level FlightAware Approximate
05:44AM 15.4644 32.4484 223° Southwest  Level FlightAware Approximate
05:45AM 15.4266 32.4122 223° Southwest  Level FlightAware Approximate
05:46AM 15.3888 32.3760 223° Southwest  Level FlightAware Approximate
05:47AM 15.3510 32.3398 223° Southwest  Level FlightAware Approximate
05:48AM 15.3132 32.3036 223° Southwest  Level FlightAware Approximate
05:49AM 15.2754 32.2675 223° Southwest  Level FlightAware Approximate
05:50AM 15.2375 32.2313 223° Southwest  Level FlightAware Approximate
05:51AM 15.1997 32.1952 223° Southwest  Level FlightAware Approximate
05:52AM 15.1619 32.1591 223° Southwest  Level FlightAware Approximate
05:53AM 15.1241 32.1230 223° Southwest  Level FlightAware Approximate
05:54AM 15.0862 32.0869 223° Southwest  Level FlightAware Approximate
05:55AM 15.0484 32.0508 223° Southwest  Level FlightAware Approximate
05:56AM 15.0105 32.0147 223° Southwest  Level FlightAware Approximate
05:57AM 14.9726 31.9786 223° Southwest  Level FlightAware Approximate
05:58AM 14.9348 31.9426 223° Southwest  Level FlightAware Approximate
05:59AM 14.8969 31.9066 223° Southwest  Level FlightAware Approximate
06:00AM 14.8590 31.8706 223° Southwest  Level FlightAware Approximate
06:01AM 14.8212 31.8345 223° Southwest  Level FlightAware Approximate
06:02AM 14.7833 31.7985 223° Southwest  Level FlightAware Approximate
06:03AM 14.7454 31.7626 223° Southwest  Level FlightAware Approximate
06:04AM 14.7075 31.7266 223° Southwest  Level FlightAware Approximate
06:05AM 14.6696 31.6906 223° Southwest  Level FlightAware Approximate
06:06AM 14.6317 31.6547 223° Southwest  Level FlightAware Approximate
06:07AM 14.5938 31.6188 223° Southwest  Level FlightAware Approximate
06:08AM 14.5558 31.5828 223° Southwest  Level FlightAware Approximate
06:09AM 14.5179 31.5469 223° Southwest  Level FlightAware Approximate
06:10AM 14.4800 31.5110 223° Southwest  Level FlightAware Approximate
06:11AM 14.4420 31.4752 222° Southwest  Level FlightAware Approximate
06:12AM 14.4041 31.4393 222° Southwest  Level FlightAware Approximate
06:13AM 14.3661 31.4034 222° Southwest  Level FlightAware Approximate
06:14AM 14.3282 31.3676 222° Southwest  Level FlightAware Approximate
06:15AM 14.2902 31.3318 222° Southwest  Level FlightAware Approximate
06:16AM 14.2523 31.2959 222° Southwest  Level FlightAware Approximate
06:17AM 14.2143 31.2601 222° Southwest  Level FlightAware Approximate
06:18AM 14.1763 31.2243 222° Southwest  Level FlightAware Approximate
06:19AM 14.1384 31.1885 222° Southwest  Level FlightAware Approximate
06:20AM 14.1004 31.1528 222° Southwest  Level FlightAware Approximate
06:21AM 14.0624 31.1170 222° Southwest  Level FlightAware Approximate
06:22AM 14.0244 31.0812 222° Southwest  Level FlightAware Approximate
06:23AM 13.9864 31.0455 222° Southwest  Level FlightAware Approximate
06:24AM 13.9484 31.0098 222° Southwest  Level FlightAware Approximate
06:25AM 13.9104 30.9741 222° Southwest  Level FlightAware Approximate
06:26AM 13.8723 30.9384 222° Southwest  Level FlightAware Approximate
06:27AM 13.8343 30.9027 222° Southwest  Level FlightAware Approximate
06:28AM 13.7963 30.8670 222° Southwest  Level FlightAware Approximate
06:29AM 13.7583 30.8313 222° Southwest  Level FlightAware Approximate
06:30AM 13.7202 30.7957 222° Southwest  Level FlightAware Approximate
06:31AM 13.6822 30.7600 222° Southwest  Level FlightAware Approximate
06:32AM 13.6441 30.7244 222° Southwest  Level FlightAware Approximate
06:33AM 13.6061 30.6888 222° Southwest  Level FlightAware Approximate
06:34AM 13.5680 30.6532 222° Southwest  Level FlightAware Approximate
06:35AM 13.5300 30.6176 222° Southwest  Level FlightAware Approximate
06:36AM 13.4919 30.5820 222° Southwest  Level FlightAware Approximate
06:37AM 13.4538 30.5464 222° Southwest  Level FlightAware Approximate
06:38AM 13.4157 30.5108 222° Southwest  Level FlightAware Approximate
06:39AM 13.3777 30.4753 222° Southwest  Level FlightAware Approximate
06:40AM 13.3396 30.4397 222° Southwest  Level FlightAware Approximate
06:41AM 13.3015 30.4042 222° Southwest  Level FlightAware Approximate
06:42AM 13.2634 30.3687 222° Southwest  Level FlightAware Approximate
06:43AM 13.2253 30.3332 222° Southwest  Level FlightAware Approximate
06:44AM 13.1872 30.2977 222° Southwest  Level FlightAware Approximate
06:45AM 13.1491 30.2622 222° Southwest  Level FlightAware Approximate
06:46AM 13.1217 30.2367 223° Southwest  Level FlightAware Approximate
06:47AM 13.1117 30.1849 223° Southwest  Level Estimated
06:48AM 13.1217 30.2367 223° Southwest  Level FlightAware Approximate
06:49AM 13.1117 30.1849 223° Southwest  Level Estimated
06:50AM 13.1217 30.2367 223° Southwest  Level FlightAware Approximate
06:51AM 13.1117 30.1849 223° Southwest  Level Estimated
06:52AM 13.1217 30.2367 223° Southwest  Level FlightAware Approximate
06:53AM 13.1117 30.1849 223° Southwest  Level Estimated
06:54AM 13.1217 30.2367 223° Southwest  Level FlightAware Approximate
06:55AM 13.1117 30.1849 223° Southwest  Level Estimated
06:56AM 13.1217 30.2367 223° Southwest  Level FlightAware Approximate
06:57AM 13.1117 30.1849 223° Southwest  Level Estimated
06:58AM 13.1217 30.2367 223° Southwest  Level FlightAware Approximate
06:59AM 13.1117 30.1849 223° Southwest  Level Estimated
07:00AM 13.1217 30.2367 223° Southwest  Level FlightAware Approximate
07:01AM 13.1117 30.1849 223° Southwest  Level Estimated
07:02AM 13.1217 30.2367 223° Southwest  Level FlightAware Approximate
07:03AM 13.1117 30.1849 223° Southwest  Level Estimated
07:04AM 13.1217 30.2367 223° Southwest  Level FlightAware Approximate
07:05AM 13.1117 30.1849 223° Southwest  Level Estimated
07:06AM 13.1217 30.2367 223° Southwest  Level FlightAware Approximate
07:07AM 13.1117 30.1849 223° Southwest  Level Estimated
07:08AM 13.1217 30.2367 223° Southwest  Level FlightAware Approximate
07:09AM 13.1117 30.1849 223° Southwest  Level Estimated
07:10AM 13.1217 30.2367 223° Southwest  Level FlightAware Approximate
07:11AM 13.1117 30.1849 223° Southwest  Level Estimated
07:12AM 13.1217 30.2367 223° Southwest  Level FlightAware Approximate
07:13AM 13.1117 30.1849 223° Southwest  Level Estimated
07:14AM 13.1217 30.2367 223° Southwest  Level FlightAware Approximate
07:15AM 13.1117 30.1849 223° Southwest  Level Estimated
07:16AM 13.1217 30.2367 223° Southwest  Level FlightAware Approximate
07:17AM 13.1117 30.1849 223° Southwest  Level Estimated
07:18AM 13.1217 30.2367 223° Southwest  Level FlightAware Approximate
07:19AM 13.1117 30.1849 223° Southwest  Level Estimated
07:20AM 13.1217 30.2367 223° Southwest  Level FlightAware Approximate
07:21AM 13.1117 30.1849 223° Southwest  Level Estimated
07:22AM 13.1217 30.2367 223° Southwest  Level FlightAware Approximate
07:23AM 13.1117 30.1849 223° Southwest  Level Estimated
07:24AM 13.1217 30.2367 223° Southwest  Level FlightAware Approximate
07:25AM 13.1117 30.1849 223° Southwest  Level Estimated
07:26AM 13.1217 30.2367 223° Southwest  Level FlightAware Approximate
07:27AM 13.1117 30.1849 223° Southwest  Level Estimated
07:28AM 13.1217 30.2367 223° Southwest  Level FlightAware Approximate
07:29AM 13.1117 30.1849 223° Southwest  Level Estimated
07:30AM 13.1217 30.2367 223° Southwest  Level FlightAware Approximate
07:31AM 13.1117 30.1849 223° Southwest  Level Estimated
07:32AM 13.1217 30.2367 223° Southwest  Level FlightAware Approximate
07:33AM 13.1117 30.1849 223° Southwest  Level Estimated
07:34AM 13.1217 30.2367 223° Southwest  Level FlightAware Approximate
07:35AM 13.1117 30.1849 223° Southwest  Level Estimated
07:36AM 13.1217 30.2367 223° Southwest  Level FlightAware Approximate
07:37AM 13.1117 30.1849 223° Southwest  Level Estimated
07:38AM 13.1217 30.2367 223° Southwest  Level FlightAware Approximate
07:39AM 13.1117 30.1849 223° Southwest  Level Estimated
07:40AM 13.1217 30.2367 223° Southwest  Level FlightAware Approximate
07:41AM 13.1117 30.1849 223° Southwest  Level Estimated
07:42AM 13.1217 30.2367 223° Southwest  Level FlightAware Approximate
07:43AM 13.1117 30.1849 223° Southwest  Level Estimated
07:44AM 13.1217 30.2367 223° Southwest  Level FlightAware Approximate
07:45AM 13.1117 30.1849 223° Southwest  Level Estimated
07:46AM 13.1217 30.2367 223° Southwest  Level FlightAware Approximate
07:47AM 13.1117 30.1849 223° Southwest  Level Estimated
07:48AM 13.1217 30.2367 223° Southwest  Level FlightAware Approximate
07:49AM 13.1117 30.1849 223° Southwest  Level Estimated
07:50AM 13.1217 30.2367 223° Southwest  Level FlightAware Approximate
07:51AM 13.1117 30.1849 223° Southwest  Level Estimated
07:52AM 13.1217 30.2367 223° Southwest  Level FlightAware Approximate